Time;durP1;ratioP1;P1;durP2;ratioP2;P2;SDS_P1;SDS_P2;PMS_P1;PMS_P2;Temp;Humidity;BMP_temperature;BMP_pressure;BME280_temperature;BME280_humidity;BME280_pressure;Samples;Min_cycle;Max_cycle;Signal;HPM_P1;HPM_P2
2022/07/13 00:01:30;;;;;;;9.27;7.45;;;;;;;;;;5070122;28;20193;-59
2022/07/13 00:03:57;;;;;;;10.05;7.40;;;;;;;;;;5072406;28;20264;-60
2022/07/13 00:06:23;;;;;;;9.60;7.10;;;;;;;;;;5052784;28;20187;-60
2022/07/13 00:08:49;;;;;;;9.48;7.30;;;;;;;;;;5053365;28;20222;-60
2022/07/13 00:11:15;;;;;;;9.57;7.80;;;;;;;;;;5069130;28;20179;-60
2022/07/13 00:13:41;;;;;;;11.07;7.07;;;;;;;;;;5067693;28;20187;-60
2022/07/13 00:16:08;;;;;;;11.73;7.53;;;;;;;;;;5069953;28;20242;-60
2022/07/13 00:18:34;;;;;;;11.82;7.47;;;;;;;;;;5054084;28;20175;-60
2022/07/13 00:21:00;;;;;;;13.20;7.70;;;;;;;;;;5069557;28;20190;-60
2022/07/13 00:23:26;;;;;;;12.23;7.65;;;;;;;;;;5069143;28;20233;-60
2022/07/13 00:25:52;;;;;;;16.77;7.90;;;;;;;;;;5069971;28;20222;-60
2022/07/13 00:28:18;;;;;;;12.45;7.88;;;;;;;;;;5070251;28;20187;-59
2022/07/13 00:30:44;;;;;;;11.63;7.60;;;;;;;;;;5068955;28;20194;-59
2022/07/13 00:33:10;;;;;;;11.32;8.02;;;;;;;;;;5072332;28;20236;-59
2022/07/13 00:35:37;;;;;;;9.40;7.70;;;;;;;;;;5070848;28;20210;-59
2022/07/13 00:38:03;;;;;;;9.57;7.18;;;;;;;;;;5072085;28;20182;-59
2022/07/13 00:40:30;;;;;;;9.00;7.25;;;;;;;;;;5062437;28;20210;-59
2022/07/13 00:42:57;;;;;;;11.40;7.45;;;;;;;;;;5055782;28;20651;-59
2022/07/13 00:45:24;;;;;;;13.32;7.35;;;;;;;;;;5073444;28;20198;-59
2022/07/13 00:47:50;;;;;;;10.95;7.13;;;;;;;;;;5074868;28;20182;-59
2022/07/13 00:50:16;;;;;;;10.63;7.25;;;;;;;;;;5066190;28;20190;-60
2022/07/13 00:52:42;;;;;;;9.10;6.90;;;;;;;;;;5057248;28;20190;-60
2022/07/13 00:55:12;;;;;;;9.48;6.95;;;;;;;;;;5074116;28;20293;-59
2022/07/13 00:57:38;;;;;;;9.65;6.68;;;;;;;;;;5056388;28;20263;-60
2022/07/13 01:00:07;;;;;;;10.43;6.80;;;;;;;;;;5075347;28;20179;-59
2022/07/13 01:02:33;;;;;;;14.48;6.97;;;;;;;;;;5072113;28;20218;-59
2022/07/13 01:05:01;;;;;;;9.70;6.72;;;;;;;;;;5041851;28;20201;-59
2022/07/13 01:07:27;;;;;;;13.13;7.20;;;;;;;;;;5054287;28;20190;-59
2022/07/13 01:09:53;;;;;;;7.47;6.65;;;;;;;;;;5072900;28;20191;-59
2022/07/13 01:12:19;;;;;;;9.20;6.70;;;;;;;;;;5072320;28;20189;-59
2022/07/13 01:14:45;;;;;;;7.97;6.32;;;;;;;;;;5056695;28;20185;-59
2022/07/13 01:17:11;;;;;;;11.05;6.50;;;;;;;;;;5072695;28;20188;-60
2022/07/13 01:19:38;;;;;;;8.23;6.88;;;;;;;;;;5074040;28;20203;-60
2022/07/13 01:22:04;;;;;;;13.85;7.00;;;;;;;;;;5055468;28;20221;-59
2022/07/13 01:24:30;;;;;;;9.75;7.00;;;;;;;;;;5074633;28;20190;-59
2022/07/13 01:26:57;;;;;;;9.00;6.43;;;;;;;;;;5037134;28;20319;-59
2022/07/13 01:29:23;;;;;;;11.70;7.50;;;;;;;;;;5016313;28;20224;-59
2022/07/13 01:31:49;;;;;;;11.02;7.35;;;;;;;;;;5024636;28;20192;-59
2022/07/13 01:34:16;;;;;;;10.68;6.93;;;;;;;;;;5019977;28;20189;-59
2022/07/13 01:36:42;;;;;;;10.93;7.00;;;;;;;;;;5023152;28;20223;-59
2022/07/13 01:39:09;;;;;;;10.63;7.22;;;;;;;;;;5032766;28;20702;-59
2022/07/13 01:41:36;;;;;;;12.32;7.35;;;;;;;;;;5029854;28;20676;-59
2022/07/13 01:44:02;;;;;;;10.88;7.90;;;;;;;;;;5033010;28;20187;-59
2022/07/13 01:46:29;;;;;;;9.57;7.30;;;;;;;;;;5031420;28;20315;-59
2022/07/13 01:48:57;;;;;;;10.35;7.43;;;;;;;;;;5030006;28;20188;-59
2022/07/13 01:51:24;;;;;;;11.63;7.25;;;;;;;;;;5030840;28;20270;-59
2022/07/13 01:53:50;;;;;;;12.15;7.93;;;;;;;;;;5012544;28;20192;-59
2022/07/13 01:56:19;;;;;;;14.48;7.65;;;;;;;;;;5020158;28;20219;-59
2022/07/13 01:58:47;;;;;;;10.63;7.32;;;;;;;;;;5016812;28;20243;-59
2022/07/13 02:01:13;;;;;;;11.25;7.65;;;;;;;;;;5028696;28;20214;-59
2022/07/13 02:03:40;;;;;;;13.77;7.90;;;;;;;;;;5017612;28;20185;-59
2022/07/13 02:06:06;;;;;;;13.40;8.18;;;;;;;;;;5029973;28;20203;-59
2022/07/13 02:08:32;;;;;;;10.98;8.30;;;;;;;;;;5025541;28;20188;-59
2022/07/13 02:11:00;;;;;;;10.82;7.85;;;;;;;;;;5027620;28;20180;-59
2022/07/13 02:13:26;;;;;;;12.27;8.23;;;;;;;;;;5030866;28;20192;-59
2022/07/13 02:15:53;;;;;;;11.40;7.80;;;;;;;;;;5015221;28;20220;-59
2022/07/13 02:18:19;;;;;;;11.80;8.43;;;;;;;;;;5032485;28;20176;-59
2022/07/13 02:20:45;;;;;;;10.98;8.60;;;;;;;;;;5021527;28;20188;-59
2022/07/13 02:23:11;;;;;;;13.40;8.45;;;;;;;;;;5032318;28;20180;-59
2022/07/13 02:25:37;;;;;;;13.52;8.60;;;;;;;;;;5022683;28;20192;-59
2022/07/13 02:28:06;;;;;;;13.73;8.57;;;;;;;;;;5041151;28;20196;-60
2022/07/13 02:30:33;;;;;;;16.10;9.05;;;;;;;;;;5035034;28;20184;-60
2022/07/13 02:33:00;;;;;;;15.20;9.05;;;;;;;;;;5015847;28;20237;-60
2022/07/13 02:35:26;;;;;;;14.65;9.45;;;;;;;;;;5041040;28;20224;-59
2022/07/13 02:37:52;;;;;;;16.60;9.88;;;;;;;;;;5042788;28;20191;-60
2022/07/13 02:40:18;;;;;;;19.88;9.57;;;;;;;;;;5053114;28;20244;-59
2022/07/13 02:42:44;;;;;;;14.43;10.02;;;;;;;;;;5051117;28;20191;-59
2022/07/13 02:45:13;;;;;;;14.45;10.40;;;;;;;;;;5051344;28;20709;-59
2022/07/13 02:47:39;;;;;;;13.18;10.15;;;;;;;;;;5051592;28;20193;-59
2022/07/13 02:50:06;;;;;;;12.85;9.90;;;;;;;;;;5051485;28;20218;-59
2022/07/13 02:52:32;;;;;;;13.75;10.23;;;;;;;;;;5038858;28;20191;-59
2022/07/13 02:54:58;;;;;;;11.68;9.32;;;;;;;;;;5060602;28;20215;-59
2022/07/13 02:57:25;;;;;;;22.20;10.38;;;;;;;;;;5052553;28;20190;-59
2022/07/13 02:59:56;;;;;;;14.35;10.45;;;;;;;;;;5029020;28;20713;-59
2022/07/13 03:02:22;;;;;;;18.52;11.02;;;;;;;;;;5050051;28;20224;-60
2022/07/13 03:04:49;;;;;;;18.83;10.82;;;;;;;;;;5034079;28;20187;-59
2022/07/13 03:07:15;;;;;;;15.13;10.18;;;;;;;;;;5051388;28;20653;-58
2022/07/13 03:09:41;;;;;;;17.88;10.38;;;;;;;;;;5051219;28;20718;-58
2022/07/13 03:12:08;;;;;;;17.80;10.85;;;;;;;;;;5044789;28;20211;-60
2022/07/13 03:14:34;;;;;;;17.13;10.27;;;;;;;;;;5047469;28;20211;-59
2022/07/13 03:17:01;;;;;;;15.50;9.93;;;;;;;;;;5051248;28;20697;-59
2022/07/13 03:19:27;;;;;;;16.63;9.73;;;;;;;;;;5051303;28;20187;-59
2022/07/13 03:21:54;;;;;;;18.00;10.45;;;;;;;;;;5037622;28;20195;-59
2022/07/13 03:24:20;;;;;;;18.15;10.25;;;;;;;;;;5036077;28;20199;-60
2022/07/13 03:26:46;;;;;;;14.70;10.02;;;;;;;;;;5037508;28;20229;-59
2022/07/13 03:29:12;;;;;;;15.38;9.90;;;;;;;;;;5050467;28;20178;-59
2022/07/13 03:31:38;;;;;;;12.38;9.02;;;;;;;;;;5031174;28;20199;-59
2022/07/13 03:34:04;;;;;;;18.08;9.82;;;;;;;;;;5039519;28;20264;-59
2022/07/13 03:36:32;;;;;;;14.07;9.90;;;;;;;;;;5050997;28;20226;-60
2022/07/13 03:39:01;;;;;;;11.73;9.20;;;;;;;;;;5034273;28;20671;-59
2022/07/13 03:41:30;;;;;;;17.33;9.25;;;;;;;;;;5049279;28;20187;-59
2022/07/13 03:43:57;;;;;;;12.15;7.75;;;;;;;;;;5028446;28;20191;-60
2022/07/13 03:46:24;;;;;;;13.52;8.50;;;;;;;;;;5049265;28;20187;-59
2022/07/13 03:48:50;;;;;;;13.85;7.72;;;;;;;;;;5051029;28;20211;-59
2022/07/13 03:51:17;;;;;;;10.57;7.13;;;;;;;;;;5050198;28;20191;-60
2022/07/13 03:53:44;;;;;;;10.20;7.20;;;;;;;;;;5041270;28;20724;-60
2022/07/13 03:56:10;;;;;;;12.60;6.43;;;;;;;;;;5049591;28;20337;-59
2022/07/13 03:58:37;;;;;;;12.90;6.20;;;;;;;;;;5034368;28;20196;-60
2022/07/13 04:01:03;;;;;;;9.13;6.10;;;;;;;;;;5048020;28;20805;-60
2022/07/13 04:03:30;;;;;;;8.30;6.25;;;;;;;;;;5051607;28;20184;-59
2022/07/13 04:05:56;;;;;;;9.60;5.30;;;;;;;;;;5049318;28;20190;-59
2022/07/13 04:08:22;;;;;;;9.65;5.10;;;;;;;;;;5051515;28;20536;-59
2022/07/13 04:10:48;;;;;;;13.98;5.20;;;;;;;;;;5039897;28;20211;-59
2022/07/13 04:13:16;;;;;;;6.47;4.82;;;;;;;;;;5043246;28;20260;-59
2022/07/13 04:15:42;;;;;;;11.85;5.20;;;;;;;;;;5051297;28;20273;-63
2022/07/13 04:18:08;;;;;;;10.82;4.82;;;;;;;;;;5053712;28;20282;-59
2022/07/13 04:20:35;;;;;;;9.70;4.95;;;;;;;;;;5038828;28;20217;-59
2022/07/13 04:23:01;;;;;;;10.60;5.35;;;;;;;;;;5054821;28;20183;-66
2022/07/13 04:25:27;;;;;;;7.18;4.35;;;;;;;;;;5046941;28;20213;-59
2022/07/13 04:27:56;;;;;;;8.45;4.22;;;;;;;;;;5035120;28;20255;-59
2022/07/13 04:30:22;;;;;;;9.30;4.68;;;;;;;;;;5033647;28;20192;-59
2022/07/13 04:32:49;;;;;;;6.55;4.70;;;;;;;;;;5034214;28;20192;-59
2022/07/13 04:35:18;;;;;;;10.60;4.80;;;;;;;;;;5013792;28;20224;-59
2022/07/13 04:37:48;;;;;;;6.15;3.80;;;;;;;;;;5029029;28;20286;-59
2022/07/13 04:40:14;;;;;;;10.48;4.32;;;;;;;;;;5026813;28;20191;-60
2022/07/13 04:42:40;;;;;;;9.02;4.80;;;;;;;;;;5033432;28;20180;-59
2022/07/13 04:45:09;;;;;;;10.10;4.63;;;;;;;;;;5016083;28;20232;-58
2022/07/13 04:47:37;;;;;;;15.88;4.60;;;;;;;;;;5015601;28;20221;-59
2022/07/13 04:50:04;;;;;;;6.93;4.63;;;;;;;;;;5023113;28;20196;-59
2022/07/13 04:52:30;;;;;;;15.77;4.82;;;;;;;;;;5034254;28;20206;-59
2022/07/13 04:54:56;;;;;;;16.10;4.95;;;;;;;;;;5028563;28;20212;-59
2022/07/13 04:57:23;;;;;;;10.00;4.80;;;;;;;;;;5016769;28;20168;-59
2022/07/13 04:59:49;;;;;;;12.43;4.97;;;;;;;;;;5019496;28;20180;-58
2022/07/13 05:02:15;;;;;;;9.32;4.50;;;;;;;;;;5035062;28;20177;-59
2022/07/13 05:04:42;;;;;;;7.78;5.18;;;;;;;;;;5019579;28;20238;-59
2022/07/13 05:07:08;;;;;;;11.05;4.82;;;;;;;;;;5018856;28;20183;-59
2022/07/13 05:09:35;;;;;;;12.48;5.25;;;;;;;;;;5034173;28;20246;-59
2022/07/13 05:12:01;;;;;;;12.32;5.25;;;;;;;;;;5025017;28;20286;-59
2022/07/13 05:14:28;;;;;;;11.30;5.22;;;;;;;;;;5000614;28;20184;-59
2022/07/13 05:16:54;;;;;;;10.93;4.88;;;;;;;;;;5034975;28;20229;-59
2022/07/13 05:19:21;;;;;;;12.90;4.85;;;;;;;;;;5014946;28;20215;-60
2022/07/13 05:21:49;;;;;;;8.02;4.60;;;;;;;;;;5007297;28;20189;-60
2022/07/13 05:24:16;;;;;;;9.18;4.78;;;;;;;;;;5029655;28;20618;-59
2022/07/13 05:26:43;;;;;;;8.27;5.00;;;;;;;;;;5053118;28;20223;-60
2022/07/13 05:29:09;;;;;;;8.85;5.00;;;;;;;;;;5056077;28;20186;-60
2022/07/13 05:31:36;;;;;;;12.73;4.75;;;;;;;;;;5069682;28;20182;-60
2022/07/13 05:34:04;;;;;;;9.30;4.90;;;;;;;;;;5043571;28;20183;-60
2022/07/13 05:36:36;;;;;;;16.90;6.10;;;;;;;;;;5069037;28;20240;-59
2022/07/13 05:39:04;;;;;;;10.10;5.10;;;;;;;;;;5020936;28;20190;-59
2022/07/13 05:41:30;;;;;;;9.57;4.40;;;;;;;;;;5041970;28;20183;-59
2022/07/13 05:43:56;;;;;;;16.13;4.82;;;;;;;;;;5056421;28;20181;-58
2022/07/13 05:46:25;;;;;;;12.82;4.80;;;;;;;;;;5055966;28;20186;-59
2022/07/13 05:48:51;;;;;;;9.80;5.05;;;;;;;;;;5056560;28;20182;-58
2022/07/13 05:51:17;;;;;;;6.93;4.63;;;;;;;;;;5035745;28;20210;-59
2022/07/13 05:53:45;;;;;;;10.68;4.95;;;;;;;;;;5039426;28;20190;-58
2022/07/13 05:56:13;;;;;;;10.10;5.40;;;;;;;;;;5055416;28;20317;-58
2022/07/13 05:58:40;;;;;;;10.02;5.30;;;;;;;;;;5074212;28;20183;-58
2022/07/13 06:01:06;;;;;;;11.07;5.38;;;;;;;;;;5073345;28;20187;-58
2022/07/13 06:03:32;;;;;;;11.55;5.60;;;;;;;;;;5055068;28;20204;-59
2022/07/13 06:05:58;;;;;;;10.18;5.38;;;;;;;;;;5058800;28;20187;-58
2022/07/13 06:08:24;;;;;;;12.45;5.53;;;;;;;;;;5065720;28;20175;-58
2022/07/13 06:10:52;;;;;;;9.20;5.50;;;;;;;;;;5066130;28;20193;-58
2022/07/13 06:13:18;;;;;;;10.10;5.60;;;;;;;;;;5067083;28;20182;-58
2022/07/13 06:15:44;;;;;;;10.27;5.38;;;;;;;;;;5072202;28;20202;-58
2022/07/13 06:18:10;;;;;;;11.18;6.10;;;;;;;;;;5055056;28;20174;-58
2022/07/13 06:20:37;;;;;;;8.85;6.07;;;;;;;;;;5072233;28;20228;-58
2022/07/13 06:23:09;;;;;;;10.38;5.15;;;;;;;;;;5072524;28;20596;-58
2022/07/13 06:25:36;;;;;;;13.10;6.07;;;;;;;;;;5068754;28;20205;-58
2022/07/13 06:28:02;;;;;;;12.73;5.50;;;;;;;;;;5070420;28;20753;-58
2022/07/13 06:30:28;;;;;;;12.05;5.68;;;;;;;;;;5070486;28;20264;-59
2022/07/13 06:32:54;;;;;;;10.15;5.47;;;;;;;;;;5060983;28;20180;-58
2022/07/13 06:35:45;;;;;;;10.57;5.60;;;;;;;;;;5067265;28;20272;-58
2022/07/13 06:38:36;;;;;;;12.82;5.15;;;;;;;;;;5058667;28;20190;-60
2022/07/13 06:41:28;;;;;;;9.10;5.13;;;;;;;;;;5072390;28;20282;-59
2022/07/13 06:44:13;;;;;;;14.25;5.35;;;;;;;;;;5061147;28;20247;-58
2022/07/13 06:46:59;;;;;;;7.40;5.30;;;;;;;;;;5064729;28;20273;-59
2022/07/13 06:49:43;;;;;;;9.88;5.20;;;;;;;;;;5070402;28;20758;-59
2022/07/13 06:52:29;;;;;;;9.05;4.90;;;;;;;;;;5072393;28;20189;-59
2022/07/13 06:55:14;;;;;;;7.30;5.25;;;;;;;;;;5066618;28;20221;-59
2022/07/13 06:57:58;;;;;;;9.88;4.85;;;;;;;;;;5055673;28;20205;-59
2022/07/13 07:00:43;;;;;;;9.95;5.35;;;;;;;;;;5069818;28;20268;-60
2022/07/13 07:03:28;;;;;;;11.52;6.20;;;;;;;;;;5055126;28;20194;-59
2022/07/13 07:06:13;;;;;;;14.32;5.05;;;;;;;;;;5071024;28;20189;-59
2022/07/13 07:08:58;;;;;;;11.75;5.43;;;;;;;;;;5072172;28;20193;-59
2022/07/13 07:11:44;;;;;;;10.43;5.20;;;;;;;;;;5067638;28;20193;-60
2022/07/13 07:14:32;;;;;;;12.20;5.20;;;;;;;;;;5069209;28;20662;-60
2022/07/13 07:17:17;;;;;;;7.32;4.80;;;;;;;;;;5074775;28;20198;-60
2022/07/13 07:19:47;;;;;;;9.80;5.22;;;;;;;;;;5070036;28;20191;-60
2022/07/13 07:22:13;;;;;;;13.00;4.90;;;;;;;;;;5048074;28;20524;-59
2022/07/13 07:24:40;;;;;;;9.27;5.10;;;;;;;;;;5036744;28;20186;-60
2022/07/13 07:27:07;;;;;;;7.70;5.10;;;;;;;;;;5052457;28;20714;-60
2022/07/13 07:29:35;;;;;;;18.42;5.50;;;;;;;;;;5039359;28;20194;-60
2022/07/13 07:32:01;;;;;;;11.00;5.18;;;;;;;;;;5059173;28;20181;-60
2022/07/13 07:34:28;;;;;;;9.15;4.95;;;;;;;;;;5055522;28;20269;-60
2022/07/13 07:36:55;;;;;;;11.25;5.72;;;;;;;;;;5071408;28;20334;-59
2022/07/13 07:39:22;;;;;;;12.93;5.45;;;;;;;;;;5051664;28;20232;-60
2022/07/13 07:41:49;;;;;;;10.73;5.50;;;;;;;;;;5070284;28;20187;-59
2022/07/13 07:44:15;;;;;;;11.32;5.53;;;;;;;;;;5070751;28;20171;-57
2022/07/13 07:46:41;;;;;;;11.20;5.47;;;;;;;;;;5070526;28;20196;-58
2022/07/13 07:49:07;;;;;;;12.68;5.93;;;;;;;;;;5047097;28;20190;-58
2022/07/13 07:51:34;;;;;;;7.05;5.13;;;;;;;;;;5076104;28;20174;-58
2022/07/13 07:54:00;;;;;;;15.82;5.97;;;;;;;;;;5072764;28;20198;-59
2022/07/13 07:56:27;;;;;;;10.65;5.93;;;;;;;;;;5059041;28;20214;-58
2022/07/13 07:58:53;;;;;;;15.68;5.60;;;;;;;;;;5069881;28;20190;-58
2022/07/13 08:01:19;;;;;;;12.43;5.75;;;;;;;;;;5075288;28;20186;-58
2022/07/13 08:03:45;;;;;;;18.60;5.32;;;;;;;;;;5075699;28;20191;-59
2022/07/13 08:06:12;;;;;;;9.27;5.30;;;;;;;;;;5075273;28;20285;-59
2022/07/13 08:08:38;;;;;;;8.48;5.47;;;;;;;;;;5075881;28;20182;-59
2022/07/13 08:11:06;;;;;;;10.48;5.05;;;;;;;;;;5052053;28;20194;-59
2022/07/13 08:13:33;;;;;;;9.52;5.45;;;;;;;;;;5067430;28;20182;-59
2022/07/13 08:15:59;;;;;;;9.35;5.43;;;;;;;;;;5069841;28;20221;-58
2022/07/13 08:18:26;;;;;;;14.50;5.22;;;;;;;;;;5075824;28;20174;-59
2022/07/13 08:20:52;;;;;;;12.85;5.40;;;;;;;;;;5074706;28;20580;-60
2022/07/13 08:26:04;;;;;;;11.95;4.80;;;;;;;;;;5057169;28;20570;-59
2022/07/13 08:28:30;;;;;;;8.32;4.78;;;;;;;;;;5075943;28;20187;-59
2022/07/13 08:30:56;;;;;;;12.27;5.60;;;;;;;;;;5070746;28;20640;-58
2022/07/13 08:38:34;;;;;;;11.40;5.25;;;;;;;;;;5055928;28;20178;-59
2022/07/13 08:38:53;;;;;;;11.80;4.90;;;;;;;;;;5075272;28;20269;-59
2022/07/13 08:41:20;;;;;;;8.88;4.95;;;;;;;;;;5073986;28;20189;-59
2022/07/13 08:43:46;;;;;;;19.00;5.10;;;;;;;;;;5057326;28;20187;-59
2022/07/13 08:46:12;;;;;;;11.60;4.72;;;;;;;;;;5059023;28;20185;-60
2022/07/13 08:48:39;;;;;;;9.68;5.20;;;;;;;;;;5062163;28;20559;-59
2022/07/13 08:51:05;;;;;;;8.63;4.75;;;;;;;;;;5041166;28;20182;-59
2022/07/13 08:53:31;;;;;;;17.25;5.40;;;;;;;;;;5072168;28;20190;-59
2022/07/13 08:55:57;;;;;;;13.50;5.20;;;;;;;;;;5054953;28;20214;-60
2022/07/13 08:58:24;;;;;;;12.73;5.30;;;;;;;;;;5040503;28;20511;-60
2022/07/13 09:00:50;;;;;;;13.35;5.53;;;;;;;;;;5071868;28;20662;-60
2022/07/13 09:03:16;;;;;;;11.77;5.20;;;;;;;;;;5073814;28;20653;-61
2022/07/13 09:05:43;;;;;;;10.85;4.90;;;;;;;;;;5053703;28;20533;-60
2022/07/13 09:08:10;;;;;;;8.93;5.03;;;;;;;;;;5059293;28;20187;-59
2022/07/13 09:10:53;;;;;;;13.02;5.05;;;;;;;;;;5067702;28;20690;-59
2022/07/13 09:13:34;;;;;;;8.98;5.15;;;;;;;;;;5073770;28;20187;-59
2022/07/13 09:16:16;;;;;;;8.43;5.18;;;;;;;;;;5052893;28;20622;-59
2022/07/13 09:18:44;;;;;;;10.52;5.55;;;;;;;;;;5039829;28;20194;-59
2022/07/13 09:21:10;;;;;;;10.27;5.35;;;;;;;;;;5070271;28;20255;-59
2022/07/13 09:23:36;;;;;;;13.45;5.57;;;;;;;;;;5070560;28;20185;-59
2022/07/13 09:26:02;;;;;;;9.15;5.22;;;;;;;;;;5070732;28;20183;-59
2022/07/13 09:28:29;;;;;;;9.48;5.07;;;;;;;;;;5055375;28;20671;-60
2022/07/13 09:31:04;;;;;;;12.25;4.78;;;;;;;;;;5072380;28;20240;-59
2022/07/13 09:33:32;;;;;;;10.40;5.10;;;;;;;;;;5045040;28;20219;-58
2022/07/13 09:35:59;;;;;;;9.90;5.03;;;;;;;;;;5073119;28;20203;-58
2022/07/13 09:38:32;;;;;;;11.63;5.05;;;;;;;;;;5074291;28;20210;-58
2022/07/13 09:41:17;;;;;;;8.30;4.93;;;;;;;;;;5069903;28;20373;-58
2022/07/13 09:46:53;;;;;;;10.93;5.22;;;;;;;;;;5054351;28;20184;-58
2022/07/13 09:49:30;;;;;;;15.35;5.47;;;;;;;;;;5059279;28;20174;-58
2022/07/13 09:51:59;;;;;;;12.30;4.60;;;;;;;;;;5055860;28;20174;-58
2022/07/13 09:54:27;;;;;;;13.63;5.18;;;;;;;;;;5072324;28;20266;-59
2022/07/13 09:56:57;;;;;;;10.05;4.57;;;;;;;;;;5057439;28;20269;-59
2022/07/13 09:59:23;;;;;;;15.35;4.88;;;;;;;;;;5064988;28;20289;-59
2022/07/13 10:01:49;;;;;;;8.68;4.35;;;;;;;;;;5073889;28;20263;-58
2022/07/13 10:04:16;;;;;;;11.00;4.18;;;;;;;;;;5063912;28;20258;-59
2022/07/13 10:06:43;;;;;;;12.05;4.60;;;;;;;;;;5036423;28;20187;-57
2022/07/13 10:09:09;;;;;;;11.65;4.60;;;;;;;;;;5054114;28;20539;-59
2022/07/13 10:11:36;;;;;;;7.78;4.28;;;;;;;;;;5056487;28;20167;-60
2022/07/13 10:14:02;;;;;;;9.32;4.40;;;;;;;;;;5071008;28;20636;-61
2022/07/13 10:16:29;;;;;;;11.07;4.55;;;;;;;;;;5052346;28;20586;-60
2022/07/13 10:18:55;;;;;;;7.35;4.38;;;;;;;;;;5053817;28;20184;-60
2022/07/13 10:21:33;;;;;;;7.43;4.50;;;;;;;;;;5069879;28;20190;-60
2022/07/13 10:23:59;;;;;;;5.72;4.05;;;;;;;;;;5071560;28;20186;-61
2022/07/13 10:26:28;;;;;;;8.70;3.80;;;;;;;;;;5072318;28;20240;-60
2022/07/13 10:29:09;;;;;;;8.75;4.18;;;;;;;;;;5073100;28;20666;-60
2022/07/13 10:31:39;;;;;;;13.50;5.38;;;;;;;;;;5060888;28;20193;-60
2022/07/13 10:34:06;;;;;;;8.05;4.20;;;;;;;;;;5072321;28;20175;-61
2022/07/13 10:36:50;;;;;;;7.70;3.40;;;;;;;;;;5073486;28;20251;-59
2022/07/13 10:39:17;;;;;;;10.00;3.70;;;;;;;;;;5071811;28;20205;-61
2022/07/13 10:41:55;;;;;;;8.60;3.50;;;;;;;;;;5055196;28;20186;-61
2022/07/13 10:44:30;;;;;;;5.28;3.13;;;;;;;;;;5071762;28;20186;-60
2022/07/13 10:46:57;;;;;;;6.25;3.20;;;;;;;;;;5073243;28;20182;-60
2022/07/13 10:49:39;;;;;;;6.90;3.08;;;;;;;;;;5070893;28;20655;-59
2022/07/13 10:52:35;;;;;;;4.85;2.65;;;;;;;;;;5071471;28;20174;-60
2022/07/13 10:55:05;;;;;;;7.85;2.65;;;;;;;;;;5070439;28;20178;-59
2022/07/13 10:57:33;;;;;;;4.82;2.47;;;;;;;;;;5071921;28;20170;-60
2022/07/13 11:00:19;;;;;;;3.45;2.40;;;;;;;;;;5065393;28;20182;-60
2022/07/13 11:02:50;;;;;;;5.03;2.80;;;;;;;;;;5036061;28;20190;-60
2022/07/13 11:05:20;;;;;;;8.27;2.80;;;;;;;;;;5052668;28;20195;-61
2022/07/13 11:07:50;;;;;;;7.47;2.67;;;;;;;;;;5072361;28;20178;-60
2022/07/13 11:10:17;;;;;;;4.03;3.05;;;;;;;;;;5068121;28;20547;-60
2022/07/13 11:13:01;;;;;;;6.05;2.53;;;;;;;;;;5038928;28;20552;-60
2022/07/13 11:15:44;;;;;;;3.60;2.25;;;;;;;;;;5062756;28;20297;-59
2022/07/13 11:18:28;;;;;;;4.00;2.20;;;;;;;;;;5052862;28;20232;-59
2022/07/13 11:21:23;;;;;;;5.72;2.10;;;;;;;;;;5059088;28;20187;-59
2022/07/13 11:26:51;;;;;;;3.55;2.45;;;;;;;;;;5053430;28;20260;-59
2022/07/13 11:29:36;;;;;;;3.78;2.40;;;;;;;;;;5053379;28;20179;-59
2022/07/13 11:32:03;;;;;;;5.80;2.63;;;;;;;;;;5063267;28;20183;-59
2022/07/13 11:34:29;;;;;;;3.75;2.50;;;;;;;;;;5055535;28;20187;-59
2022/07/13 11:36:57;;;;;;;6.30;2.30;;;;;;;;;;5072417;28;20229;-59
2022/07/13 11:39:27;;;;;;;4.38;2.28;;;;;;;;;;5062382;28;20672;-65
2022/07/13 11:41:54;;;;;;;3.95;2.30;;;;;;;;;;5060880;28;20631;-59
2022/07/13 11:44:24;;;;;;;6.57;2.53;;;;;;;;;;5070441;28;20187;-60
2022/07/13 11:46:53;;;;;;;6.03;2.45;;;;;;;;;;5056681;28;20258;-59
2022/07/13 11:49:19;;;;;;;5.22;2.55;;;;;;;;;;5056388;28;20202;-59
2022/07/13 11:51:46;;;;;;;9.73;2.65;;;;;;;;;;5071666;28;20228;-59
2022/07/13 11:54:14;;;;;;;5.43;2.03;;;;;;;;;;5066772;28;20186;-59
2022/07/13 11:56:56;;;;;;;6.63;2.10;;;;;;;;;;5067545;28;20218;-59
2022/07/13 11:59:39;;;;;;;2.80;2.20;;;;;;;;;;5036924;28;20236;-58
2022/07/13 12:02:11;;;;;;;2.97;2.30;;;;;;;;;;5053981;28;20225;-58
2022/07/13 12:04:40;;;;;;;4.47;2.60;;;;;;;;;;5056589;28;20187;-58
2022/07/13 12:07:19;;;;;;;6.25;2.20;;;;;;;;;;5070752;28;20196;-58
2022/07/13 12:09:54;;;;;;;3.28;2.20;;;;;;;;;;5067524;28;20186;-59
2022/07/13 12:12:21;;;;;;;8.85;2.47;;;;;;;;;;5053063;28;20194;-59
2022/07/13 12:14:49;;;;;;;6.93;3.00;;;;;;;;;;5067099;28;20175;-59
2022/07/13 12:17:16;;;;;;;7.03;2.50;;;;;;;;;;5057734;28;20702;-59
2022/07/13 12:19:42;;;;;;;6.90;3.05;;;;;;;;;;5039100;28;20186;-59
2022/07/13 12:22:08;;;;;;;6.32;3.03;;;;;;;;;;5065642;28;20204;-59
2022/07/13 12:24:35;;;;;;;7.20;3.30;;;;;;;;;;5051114;28;20240;-58
2022/07/13 12:27:02;;;;;;;9.02;4.05;;;;;;;;;;5071036;28;20679;-59
2022/07/13 12:29:28;;;;;;;11.40;3.63;;;;;;;;;;5049924;28;20265;-59
2022/07/13 12:31:54;;;;;;;8.32;3.97;;;;;;;;;;5035186;28;20530;-59
2022/07/13 12:34:20;;;;;;;10.98;4.30;;;;;;;;;;5055641;28;20190;-59
2022/07/13 12:36:50;;;;;;;12.98;4.43;;;;;;;;;;5075807;28;20209;-59
2022/07/13 12:39:35;;;;;;;9.35;4.47;;;;;;;;;;5074255;28;20201;-58
2022/07/13 12:42:02;;;;;;;11.82;4.43;;;;;;;;;;5064074;28;20277;-59
2022/07/13 12:44:31;;;;;;;8.65;4.53;;;;;;;;;;5072204;28;20183;-58
2022/07/13 12:47:00;;;;;;;10.55;4.60;;;;;;;;;;5058624;28;20179;-59
2022/07/13 12:49:27;;;;;;;9.63;4.60;;;;;;;;;;5071528;28;20643;-61
2022/07/13 12:51:54;;;;;;;17.52;4.25;;;;;;;;;;5070958;28;20354;-60
2022/07/13 12:54:39;;;;;;;9.93;4.57;;;;;;;;;;5057131;28;20183;-59
2022/07/13 12:57:09;;;;;;;14.65;4.90;;;;;;;;;;5069053;28;20710;-59
2022/07/13 12:59:35;;;;;;;12.40;5.03;;;;;;;;;;5074013;28;20181;-59
2022/07/13 13:02:02;;;;;;;12.15;4.80;;;;;;;;;;5059481;28;20190;-60
2022/07/13 13:04:29;;;;;;;17.70;4.43;;;;;;;;;;5075737;28;20179;-58
2022/07/13 13:06:55;;;;;;;9.05;4.32;;;;;;;;;;5055183;28;20178;-60
2022/07/13 13:09:24;;;;;;;12.68;6.50;;;;;;;;;;5064782;28;20179;-59
2022/07/13 13:11:52;;;;;;;12.32;4.80;;;;;;;;;;5054273;28;20179;-60
2022/07/13 13:14:19;;;;;;;12.02;4.55;;;;;;;;;;5070515;28;20182;-60
2022/07/13 13:16:45;;;;;;;13.25;4.60;;;;;;;;;;5049364;28;20215;-60
2022/07/13 13:19:12;;;;;;;17.17;4.80;;;;;;;;;;5037905;28;20573;-59
2022/07/13 13:21:38;;;;;;;10.77;4.05;;;;;;;;;;5055236;28;20658;-59
2022/07/13 13:24:09;;;;;;;13.15;4.47;;;;;;;;;;5071223;28;20598;-60
2022/07/13 13:26:36;;;;;;;13.95;4.47;;;;;;;;;;5055814;28;20231;-59
2022/07/13 13:31:48;;;;;;;13.45;5.03;;;;;;;;;;5073476;28;20190;-59
2022/07/13 13:34:14;;;;;;;11.07;4.45;;;;;;;;;;5071705;28;20186;-59
2022/07/13 13:36:41;;;;;;;10.10;4.03;;;;;;;;;;5036214;28;20211;-59
2022/07/13 13:39:07;;;;;;;12.70;4.13;;;;;;;;;;5069400;28;20187;-59
2022/07/13 13:41:34;;;;;;;12.43;3.97;;;;;;;;;;5057916;28;20186;-59
2022/07/13 13:44:01;;;;;;;12.13;3.65;;;;;;;;;;5071433;28;20264;-59
2022/07/13 13:46:27;;;;;;;14.57;3.80;;;;;;;;;;5070527;28;20195;-58
2022/07/13 13:48:53;;;;;;;10.20;3.70;;;;;;;;;;5067597;28;20210;-58
2022/07/13 13:51:19;;;;;;;16.38;3.97;;;;;;;;;;5074576;28;20202;-57
2022/07/13 13:53:45;;;;;;;9.98;4.05;;;;;;;;;;5073082;28;20174;-59
2022/07/13 13:56:12;;;;;;;12.48;4.28;;;;;;;;;;5073385;28;20216;-58
2022/07/13 13:58:38;;;;;;;8.27;3.80;;;;;;;;;;5065407;28;20211;-59
2022/07/13 14:01:05;;;;;;;12.43;4.75;;;;;;;;;;5052462;28;20191;-58
2022/07/13 14:03:32;;;;;;;12.48;4.63;;;;;;;;;;5049431;28;20220;-58
2022/07/13 14:05:59;;;;;;;14.40;4.78;;;;;;;;;;5068182;28;20226;-58
2022/07/13 14:08:25;;;;;;;14.25;4.72;;;;;;;;;;5068535;28;20175;-59
2022/07/13 14:10:51;;;;;;;11.63;4.30;;;;;;;;;;5067543;28;20190;-59
2022/07/13 14:13:17;;;;;;;18.27;4.43;;;;;;;;;;5069676;28;20178;-58
2022/07/13 14:15:44;;;;;;;14.13;4.05;;;;;;;;;;5065958;28;20194;-59
2022/07/13 14:18:11;;;;;;;16.77;4.75;;;;;;;;;;5054279;28;20543;-58
2022/07/13 14:20:37;;;;;;;13.63;4.07;;;;;;;;;;5059181;28;20234;-59
2022/07/13 14:23:03;;;;;;;13.60;3.90;;;;;;;;;;5071668;28;20193;-58
2022/07/13 14:25:30;;;;;;;13.15;3.88;;;;;;;;;;5055816;28;20311;-58
2022/07/13 14:27:56;;;;;;;14.60;3.63;;;;;;;;;;5071122;28;20238;-59
2022/07/13 14:30:22;;;;;;;17.77;4.18;;;;;;;;;;5069477;28;20189;-58
2022/07/13 14:32:48;;;;;;;14.60;3.67;;;;;;;;;;5070373;28;20186;-59
2022/07/13 14:35:14;;;;;;;13.93;3.70;;;;;;;;;;5055341;28;20186;-58
2022/07/13 14:37:40;;;;;;;12.70;3.80;;;;;;;;;;5035620;28;20186;-59
2022/07/13 14:40:07;;;;;;;17.58;3.90;;;;;;;;;;5054537;28;20182;-59
2022/07/13 14:42:33;;;;;;;15.70;3.72;;;;;;;;;;5058561;28;20182;-58
2022/07/13 14:44:59;;;;;;;14.85;4.28;;;;;;;;;;5054562;28;20186;-59
2022/07/13 14:47:25;;;;;;;12.75;3.80;;;;;;;;;;5071242;28;20240;-60
2022/07/13 14:49:52;;;;;;;15.18;3.65;;;;;;;;;;5063150;28;20187;-58
2022/07/13 14:52:18;;;;;;;9.50;3.05;;;;;;;;;;5048533;28;20197;-59
2022/07/13 14:54:44;;;;;;;12.50;3.60;;;;;;;;;;5070606;28;20182;-59
2022/07/13 14:57:10;;;;;;;10.32;3.15;;;;;;;;;;5054622;28;20210;-59